Coppermine, Canada
Current Conditions -  °F | °C
As of 4:00 PM on Wednesday 17 Dec 2014 (Local Time) from CYCO Reporting Station
Blowing Snow Blowing Snow  
Wind Chill: -22°   Ceiling: 5000
Heat Index:   Visibility: 5mi
Dew Point:   Wind: 24mph
Humidity: 92%   Direction: 80°E
Pressure: 29.93"   Gusts: NA
Location:  67.83°N, 115.08°W
Report Text: CYCO 172300Z 08021KT 5SM IC BLSN FEW020 BKN050 M17/M18 A2993 RMK SC1SC6 SLP137
Loading
Personal Weather Stations






























Interactive Weather Map New forecast layout! Learn more

10-Day Weather Forecast

Advertisements
Track Severe Weather on mobile